createdAt,value
2023-03-26T00:01:24.472Z,97785.13
2023-03-26T00:04:10.616Z,97780.50
2023-03-26T00:06:57.369Z,97784.53
2023-03-26T00:09:42.872Z,97785.75
2023-03-26T00:12:28.168Z,97791.00
2023-03-26T00:15:13.467Z,97799.03
2023-03-26T00:18:00.718Z,97807.06
2023-03-26T00:20:46.390Z,97811.09
2023-03-26T00:23:33.906Z,97802.44
2023-03-26T00:26:19.269Z,97817.13
2023-03-26T00:29:06.689Z,97810.47
2023-03-26T00:31:51.980Z,97830.38
2023-03-26T00:34:37.244Z,97818.50
2023-03-26T00:37:26.823Z,97822.53
2023-03-26T00:40:12.443Z,97812.63
2023-03-26T00:42:57.984Z,97808.31
2023-03-26T00:45:43.212Z,97808.78
2023-03-26T00:48:44.346Z,97803.66
2023-03-26T00:51:30.938Z,97797.34
2023-03-26T00:54:16.565Z,97791.00
2023-03-26T00:57:01.924Z,97785.91
2023-03-26T00:59:50.090Z,97777.56
2023-03-26T01:02:35.846Z,97785.13
2023-03-26T01:05:36.259Z,97773.69
2023-03-26T01:08:32.530Z,97783.28
2023-03-26T01:11:22.212Z,97777.72
2023-03-26T01:14:20.398Z,97781.72
2023-03-26T01:17:08.133Z,97780.19
2023-03-26T01:20:11.907Z,97794.56
2023-03-26T01:23:05.321Z,97782.66
2023-03-26T01:26:09.901Z,97791.00
2023-03-26T01:28:59.818Z,97795.00
2023-03-26T01:32:14.010Z,97792.22
2023-03-26T01:35:19.034Z,97797.03
2023-03-26T01:38:28.890Z,97794.69
2023-03-26T01:41:20.977Z,97793.16
2023-03-26T01:44:31.184Z,97793.16
2023-03-26T01:47:18.473Z,97784.50
2023-03-26T01:50:04.726Z,97790.06
2023-03-26T01:52:49.935Z,97784.50
2023-03-26T01:56:06.298Z,97786.53
2023-03-26T01:59:08.240Z,97774.63
2023-03-26T02:02:01.299Z,97779.41
2023-03-26T02:04:57.759Z,97784.19
2023-03-26T02:07:51.153Z,97777.56
2023-03-26T02:10:45.910Z,97780.34
2023-03-26T02:13:32.548Z,97785.91
2023-03-26T02:16:19.734Z,97780.78
2023-03-26T02:19:15.369Z,97781.28
2023-03-26T02:22:01.007Z,97782.03
2023-03-26T02:24:49.124Z,97786.81
2023-03-26T02:27:34.461Z,97788.81
2023-03-26T02:30:29.766Z,97782.50
2023-03-26T02:33:17.410Z,97788.81
2023-03-26T02:36:04.411Z,97791.31
2023-03-26T02:38:50.776Z,97788.53
2023-03-26T02:41:40.357Z,97787.28
2023-03-26T02:44:30.517Z,97777.41
2023-03-26T02:47:19.152Z,97781.41
2023-03-26T02:50:11.965Z,97789.75
2023-03-26T02:53:11.998Z,97786.97
2023-03-26T02:56:00.759Z,97779.88
2023-03-26T02:58:52.586Z,97768.75
2023-03-26T03:01:42.777Z,97774.00
2023-03-26T03:04:29.831Z,97774.00
2023-03-26T03:07:17.980Z,97776.78
2023-03-26T03:10:08.358Z,97771.22
2023-03-26T03:13:20.273Z,97772.00
2023-03-26T03:16:06.988Z,97764.88
2023-03-26T03:18:58.041Z,97770.91
2023-03-26T03:21:54.574Z,97772.44
2023-03-26T03:24:40.093Z,97766.88
2023-03-26T03:27:26.193Z,97768.13
2023-03-26T03:30:26.040Z,97763.78
2023-03-26T03:33:36.850Z,97765.81
2023-03-26T03:36:23.357Z,97768.59
2023-03-26T03:39:18.003Z,97768.28
2023-03-26T03:42:03.479Z,97769.03
2023-03-26T03:44:49.276Z,97773.38
2023-03-26T03:47:57.203Z,97769.81
2023-03-26T03:50:50.337Z,97765.03
2023-03-26T03:53:42.333Z,97765.50
2023-03-26T03:56:29.218Z,97757.59
2023-03-26T03:59:34.648Z,97761.19
2023-03-26T04:02:30.296Z,97773.50
2023-03-26T04:05:19.980Z,97768.72
2023-03-26T04:08:08.422Z,97765.66
2023-03-26T04:11:06.424Z,97766.41
2023-03-26T04:14:11.235Z,97776.78
2023-03-26T04:17:14.058Z,97765.66
2023-03-26T04:20:10.609Z,97771.22
2023-03-26T04:22:56.281Z,97764.41
2023-03-26T04:25:50.113Z,97759.31
2023-03-26T04:28:47.641Z,97751.75
2023-03-26T04:31:38.338Z,97756.06
2023-03-26T04:34:25.281Z,97757.59
2023-03-26T04:37:40.085Z,97759.63
2023-03-26T04:40:30.640Z,97754.81
2023-03-26T04:43:36.202Z,97759.16
2023-03-26T04:46:45.285Z,97751.59
2023-03-26T04:49:57.236Z,97758.72
2023-03-26T04:52:45.177Z,97749.59
2023-03-26T04:56:07.057Z,97749.91
2023-03-26T04:59:26.087Z,97749.44
2023-03-26T05:02:14.209Z,97744.97
2023-03-26T05:05:18.196Z,97747.91
2023-03-26T05:08:05.723Z,97743.44
2023-03-26T05:10:51.065Z,97750.84
2023-03-26T05:13:47.125Z,97744.81
2023-03-26T05:16:36.201Z,97739.09
2023-03-26T05:19:26.068Z,97739.72
2023-03-26T05:22:11.736Z,97738.00
2023-03-26T05:25:04.100Z,97738.63
2023-03-26T05:27:49.593Z,97739.41
2023-03-26T05:30:36.214Z,97749.59
2023-03-26T05:33:23.524Z,97749.59
2023-03-26T05:36:19.227Z,97746.38
2023-03-26T05:39:09.882Z,97750.69
2023-03-26T05:42:27.894Z,97752.22
2023-03-26T05:45:25.951Z,97745.75
2023-03-26T05:48:12.313Z,97756.88
2023-03-26T05:50:59.138Z,97755.16
2023-03-26T05:53:47.306Z,97744.34
2023-03-26T05:56:53.234Z,97747.44
2023-03-26T05:59:58.078Z,97751.75
2023-03-26T06:03:02.756Z,97744.19
2023-03-26T06:06:16.894Z,97754.84
2023-03-26T06:09:08.479Z,97741.69
2023-03-26T06:11:55.075Z,97751.16
2023-03-26T06:14:42.903Z,97752.69
2023-03-26T06:17:36.305Z,97754.22
2023-03-26T06:20:32.891Z,97755.78
2023-03-26T06:23:23.957Z,97752.06
2023-03-26T06:26:34.016Z,97749.28
2023-03-26T06:29:36.085Z,97763.47
2023-03-26T06:32:44.790Z,97752.34
2023-03-26T06:35:36.664Z,97754.69
2023-03-26T06:38:22.407Z,97753.91
2023-03-26T06:41:08.250Z,97753.91
2023-03-26T06:49:08.139Z,97754.53
2023-03-26T06:52:24.312Z,97750.53
2023-03-26T06:55:45.135Z,97746.19
2023-03-26T06:58:45.827Z,97754.84
2023-03-26T07:01:49.895Z,97756.84
2023-03-26T07:04:54.232Z,97759.94
2023-03-26T07:07:58.443Z,97755.16
2023-03-26T07:11:02.576Z,97756.72
2023-03-26T07:14:08.491Z,97754.38
2023-03-26T07:17:17.098Z,97749.59
2023-03-26T07:20:13.135Z,97755.16
2023-03-26T07:23:01.313Z,97749.44
2023-03-26T07:26:13.659Z,97754.22
2023-03-26T07:29:35.188Z,97754.53
2023-03-26T07:33:03.809Z,97756.38
2023-03-26T07:36:43.234Z,97752.34
2023-03-26T07:40:24.514Z,97752.97
2023-03-26T07:43:43.114Z,97752.81
2023-03-26T07:46:53.279Z,97747.06
2023-03-26T07:49:57.927Z,97748.63
2023-03-26T07:53:02.563Z,97743.38
2023-03-26T07:56:20.433Z,97747.53
2023-03-26T08:00:01.297Z,97742.25
2023-03-26T08:03:23.629Z,97746.41
2023-03-26T08:06:36.541Z,97747.03
2023-03-26T08:09:38.545Z,97741.28
2023-03-26T08:13:18.209Z,97741.56
2023-03-26T08:16:33.192Z,97744.97
2023-03-26T08:19:44.903Z,97744.50
2023-03-26T08:22:36.701Z,97745.56
2023-03-26T08:25:33.445Z,97742.78
2023-03-26T08:28:46.117Z,97740.31
2023-03-26T08:31:35.141Z,97739.81
2023-03-26T08:34:20.590Z,97737.03
2023-03-26T08:37:05.881Z,97734.44
2023-03-26T08:39:51.578Z,97739.81
2023-03-26T08:43:08.500Z,97728.69
2023-03-26T08:46:23.686Z,97730.25
2023-03-26T08:49:29.691Z,97731.78
2023-03-26T08:52:18.153Z,97730.25
2023-03-26T08:55:17.769Z,97720.06
2023-03-26T08:58:27.964Z,97729.63
2023-03-26T09:01:32.092Z,97719.75
2023-03-26T09:04:20.930Z,97717.91
2023-03-26T09:07:12.368Z,97721.63
2023-03-26T09:10:04.635Z,97707.41
2023-03-26T09:13:22.590Z,97705.56
2023-03-26T09:16:49.325Z,97718.69
2023-03-26T09:20:12.198Z,97713.63
2023-03-26T09:23:03.697Z,97710.53
2023-03-26T09:26:03.606Z,97703.41
2023-03-26T09:29:10.849Z,97691.97
2023-03-26T09:32:18.320Z,97689.97
2023-03-26T09:35:25.973Z,97674.03
2023-03-26T09:38:29.709Z,97669.69
2023-03-26T09:41:21.255Z,97669.69
2023-03-26T09:44:32.088Z,97665.38
2023-03-26T09:47:44.029Z,97670.19
2023-03-26T09:50:54.242Z,97667.41
2023-03-26T09:53:52.052Z,97669.69
2023-03-26T09:56:43.621Z,97674.19
2023-03-26T09:59:57.298Z,97676.69
2023-03-26T10:03:07.617Z,97669.13
2023-03-26T10:05:58.154Z,97652.13
2023-03-26T10:09:08.472Z,97658.16
2023-03-26T10:12:14.423Z,97650.75
2023-03-26T10:15:08.497Z,97645.66
2023-03-26T10:18:33.092Z,97642.56
2023-03-26T10:21:26.714Z,97641.50
2023-03-26T10:24:37.897Z,97640.72
2023-03-26T10:27:41.625Z,97625.56
2023-03-26T10:30:53.240Z,97621.41
2023-03-26T10:33:48.113Z,97619.41
2023-03-26T10:36:33.525Z,97608.75
2023-03-26T10:39:41.688Z,97607.50
2023-03-26T10:42:55.579Z,97599.63
2023-03-26T10:45:59.761Z,97579.84
2023-03-26T10:48:47.858Z,97579.84
2023-03-26T10:51:48.691Z,97582.34
2023-03-26T10:54:56.672Z,97565.34
2023-03-26T10:57:52.899Z,97577.69
2023-03-26T11:00:47.543Z,97571.38
2023-03-26T11:03:52.631Z,97549.13
2023-03-26T11:07:04.836Z,97561.00
2023-03-26T11:09:56.828Z,97557.94
2023-03-26T11:13:05.047Z,97556.41
2023-03-26T11:16:05.049Z,97560.41
2023-03-26T11:19:05.753Z,97554.84
2023-03-26T11:22:09.135Z,97564.44
2023-03-26T11:25:23.446Z,97562.13
2023-03-26T11:28:31.160Z,97554.25
2023-03-26T11:31:24.683Z,97545.72
2023-03-26T11:34:16.597Z,97539.41
2023-03-26T11:37:08.623Z,97533.53
2023-03-26T11:39:58.416Z,97531.06
2023-03-26T11:42:44.909Z,97527.03
2023-03-26T11:45:39.429Z,97518.38
2023-03-26T11:48:37.030Z,97521.47
2023-03-26T11:51:33.588Z,97507.53
2023-03-26T11:54:21.167Z,97509.69
2023-03-26T11:57:13.757Z,97509.69
2023-03-26T12:00:17.972Z,97515.84
2023-03-26T12:03:03.319Z,97517.56
2023-03-26T12:05:59.348Z,97520.19
2023-03-26T12:08:44.838Z,97514.41
2023-03-26T12:11:35.624Z,97507.78
2023-03-26T12:14:24.853Z,97508.28
2023-03-26T12:17:31.402Z,97502.13
2023-03-26T12:20:29.823Z,97514.19
2023-03-26T12:23:38.798Z,97507.84
2023-03-26T12:26:46.364Z,97499.19
2023-03-26T12:29:34.708Z,97503.25
2023-03-26T12:32:19.881Z,97497.69
2023-03-26T12:35:08.225Z,97496.91
2023-03-26T12:37:55.812Z,97497.84
2023-03-26T12:40:43.063Z,97503.41
2023-03-26T12:44:54.325Z,97502.47
2023-03-26T12:47:57.075Z,97493.94
2023-03-26T12:50:34.078Z,97487.91
2023-03-26T12:53:40.639Z,97494.25
2023-03-26T12:56:37.021Z,97491.75
2023-03-26T12:59:41.655Z,97484.97
2023-03-26T13:02:48.628Z,97484.47
2023-03-26T13:06:06.648Z,97477.84
2023-03-26T13:09:29.842Z,97478.91
2023-03-26T13:12:34.198Z,97480.47
2023-03-26T13:15:33.162Z,97472.41
2023-03-26T13:18:52.061Z,97475.97
2023-03-26T13:21:53.959Z,97462.03
2023-03-26T13:25:01.518Z,97469.13
2023-03-26T13:28:12.090Z,97466.06
2023-03-26T13:31:18.036Z,97462.81
2023-03-26T13:34:46.904Z,97462.81
2023-03-26T13:37:55.537Z,97473.78
2023-03-26T13:41:02.649Z,97480.41
2023-03-26T13:44:03.200Z,97478.66
2023-03-26T13:47:13.351Z,97475.44
2023-03-26T13:50:06.284Z,97466.88
2023-03-26T13:52:57.070Z,97465.16
2023-03-26T13:55:50.392Z,97469.50
2023-03-26T13:58:57.669Z,97472.28
2023-03-26T14:01:55.415Z,97477.84
2023-03-26T14:04:47.956Z,97482.16
2023-03-26T14:07:41.395Z,97488.00
2023-03-26T14:10:28.930Z,97490.34
2023-03-26T14:13:38.857Z,97492.34
2023-03-26T14:16:34.583Z,97486.78
2023-03-26T14:19:33.692Z,97486.00
2023-03-26T14:22:21.956Z,97482.44
2023-03-26T14:25:19.775Z,97489.56
2023-03-26T14:28:38.332Z,97482.44
2023-03-26T14:31:56.433Z,97486.00
2023-03-26T14:35:06.227Z,97479.66
2023-03-26T14:38:21.021Z,97478.13
2023-03-26T14:41:19.152Z,97468.22
2023-03-26T14:44:51.341Z,97475.34
2023-03-26T14:48:15.530Z,97472.06
2023-03-26T14:51:13.165Z,97476.72
2023-03-26T14:54:08.860Z,97479.78
2023-03-26T14:57:25.513Z,97480.56
2023-03-26T15:00:49.636Z,97472.19
2023-03-26T15:03:53.634Z,97480.84
2023-03-26T15:06:55.156Z,97474.22
2023-03-26T15:10:34.682Z,97479.00
2023-03-26T15:13:40.919Z,97472.38
2023-03-26T15:16:44.497Z,97473.63
2023-03-26T15:20:04.316Z,97471.78
2023-03-26T15:23:18.720Z,97469.97
2023-03-26T15:26:11.276Z,97470.72
2023-03-26T15:29:21.973Z,97473.50
2023-03-26T15:32:42.748Z,97469.97
2023-03-26T15:36:03.538Z,97472.75
2023-03-26T15:39:25.113Z,97464.41
2023-03-26T15:42:42.649Z,97462.38
2023-03-26T15:45:46.062Z,97461.91
2023-03-26T15:48:39.785Z,97456.16
2023-03-26T15:51:26.128Z,97462.03
2023-03-26T15:54:23.153Z,97452.41
2023-03-26T15:57:32.633Z,97458.44
2023-03-26T16:00:19.269Z,97453.38
2023-03-26T16:03:10.924Z,97452.59
2023-03-26T16:06:31.031Z,97448.47
2023-03-26T16:09:44.946Z,97448.94
2023-03-26T16:12:35.829Z,97453.25
2023-03-26T16:15:33.298Z,97450.47
2023-03-26T16:18:27.552Z,97452.50
2023-03-26T16:21:30.530Z,97453.84
2023-03-26T16:24:23.406Z,97448.47
2023-03-26T16:27:15.302Z,97456.63
2023-03-26T16:30:01.202Z,97448.28
2023-03-26T16:32:56.403Z,97447.31
2023-03-26T16:36:05.686Z,97450.59
2023-03-26T16:39:11.719Z,97449.81
2023-03-26T16:42:06.181Z,97452.59
2023-03-26T16:44:52.176Z,97447.53
2023-03-26T16:47:44.806Z,97452.28
2023-03-26T16:50:50.161Z,97448.94
2023-03-26T16:53:41.721Z,97454.81
2023-03-26T16:56:45.250Z,97449.50
2023-03-26T17:00:05.697Z,97446.72
2023-03-26T17:03:31.807Z,97453.56
2023-03-26T17:06:25.267Z,97447.53
2023-03-26T17:09:51.581Z,97445.03
2023-03-26T17:12:44.563Z,97444.25
2023-03-26T17:15:52.466Z,97449.81
2023-03-26T17:18:37.678Z,97448.88
2023-03-26T17:21:45.747Z,97449.81
2023-03-26T17:24:57.203Z,97454.44
2023-03-26T17:28:24.035Z,97451.38
2023-03-26T17:31:37.153Z,97456.94
2023-03-26T17:34:38.095Z,97459.41
2023-03-26T17:37:23.700Z,97462.66
2023-03-26T17:40:44.770Z,97461.91
2023-03-26T17:43:47.127Z,97461.31
2023-03-26T17:49:32.025Z,97462.28
2023-03-26T17:52:41.661Z,97467.84
2023-03-26T17:55:38.810Z,97472.63
2023-03-26T17:58:42.850Z,97473.41
2023-03-26T18:01:38.466Z,97473.56
2023-03-26T18:04:34.967Z,97471.28
2023-03-26T18:07:32.218Z,97469.56
2023-03-26T18:10:30.747Z,97469.72
2023-03-26T18:13:44.901Z,97475.00
2023-03-26T18:16:39.287Z,97480.56
2023-03-26T18:19:25.993Z,97479.03
2023-03-26T18:22:19.536Z,97476.72
2023-03-26T18:25:05.330Z,97475.47
2023-03-26T18:27:51.453Z,97473.19
2023-03-26T18:30:47.881Z,97470.38
2023-03-26T18:33:43.153Z,97464.06
2023-03-26T18:36:31.074Z,97464.81
2023-03-26T18:39:18.737Z,97461.28
2023-03-26T18:42:22.867Z,97465.28
2023-03-26T18:45:23.600Z,97466.06
2023-03-26T18:48:19.168Z,97462.50
2023-03-26T18:51:07.176Z,97454.91
2023-03-26T18:53:57.248Z,97444.59
2023-03-26T18:56:47.099Z,97457.25
2023-03-26T18:59:38.057Z,97452.63
2023-03-26T19:02:27.070Z,97452.63
2023-03-26T19:05:21.953Z,97446.28
2023-03-26T19:08:08.247Z,97446.28
2023-03-26T19:10:55.171Z,97448.78
2023-03-26T19:13:46.371Z,97447.25
2023-03-26T19:16:35.620Z,97437.38
2023-03-26T19:19:23.570Z,97440.16
2023-03-26T19:22:11.860Z,97436.56
2023-03-26T19:25:00.925Z,97436.56
2023-03-26T19:27:46.763Z,97431.50
2023-03-26T19:30:41.123Z,97425.16
2023-03-26T19:33:34.696Z,97433.50
2023-03-26T19:36:23.622Z,97425.94
2023-03-26T19:39:12.797Z,97421.59
2023-03-26T19:41:58.383Z,97417.59
2023-03-26T19:44:44.729Z,97413.25
2023-03-26T19:47:50.405Z,97410.97
2023-03-26T19:50:53.364Z,97418.53
2023-03-26T19:53:43.840Z,97410.97
2023-03-26T19:56:30.100Z,97407.91
2023-03-26T19:59:15.711Z,97407.41
2023-03-26T20:02:01.696Z,97399.84
2023-03-26T20:04:47.818Z,97397.06
2023-03-26T20:07:35.399Z,97404.63
2023-03-26T20:10:21.031Z,97386.41
2023-03-26T20:13:17.287Z,97388.41
2023-03-26T20:16:27.307Z,97379.28
2023-03-26T20:19:14.180Z,97372.97
2023-03-26T20:22:00.639Z,97368.94
2023-03-26T20:24:46.825Z,97366.63
2023-03-26T20:27:32.359Z,97367.41
2023-03-26T20:30:27.526Z,97358.59
2023-03-26T20:33:27.778Z,97369.72
2023-03-26T20:36:13.715Z,97376.03
2023-03-26T20:38:59.024Z,97381.31
2023-03-26T20:41:47.144Z,97365.38
2023-03-26T20:44:32.737Z,97363.84
2023-03-26T20:47:18.196Z,97365.06
2023-03-26T20:50:05.126Z,97361.84
2023-03-26T20:52:50.564Z,97354.53
2023-03-26T20:55:35.992Z,97354.53
2023-03-26T20:58:31.542Z,97361.06
2023-03-26T21:01:17.804Z,97361.84
2023-03-26T21:04:04.431Z,97369.41
2023-03-26T21:06:50.800Z,97361.06
2023-03-26T21:09:37.543Z,97361.84
2023-03-26T21:12:33.524Z,97358.28
2023-03-26T21:15:23.527Z,97361.84
2023-03-26T21:18:09.850Z,97351.47
2023-03-26T21:21:30.407Z,97353.78
2023-03-26T21:24:45.947Z,97355.34
2023-03-26T21:27:47.351Z,97360.91
2023-03-26T21:30:34.407Z,97366.47
2023-03-26T21:33:20.352Z,97372.19
2023-03-26T21:36:07.465Z,97381.00
2023-03-26T21:38:54.659Z,97387.06
2023-03-26T21:41:45.660Z,97392.31
2023-03-26T21:44:31.918Z,97403.13
2023-03-26T21:47:18.177Z,97396.50
2023-03-26T21:50:06.960Z,97406.84
2023-03-26T21:52:53.529Z,97400.50
2023-03-26T21:56:16.134Z,97402.25
2023-03-26T21:59:10.768Z,97409.53
2023-03-26T22:01:58.934Z,97409.97
2023-03-26T22:05:11.487Z,97406.16
2023-03-26T22:08:03.089Z,97391.19
2023-03-26T22:10:48.891Z,97402.00
2023-03-26T22:13:35.770Z,97394.13
2023-03-26T22:16:25.480Z,97401.41
2023-03-26T22:19:12.846Z,97400.34
2023-03-26T22:22:00.190Z,97407.16
2023-03-26T22:24:45.770Z,97407.16
2023-03-26T22:27:31.247Z,97406.06
2023-03-26T22:30:17.874Z,97407.31
2023-03-26T22:33:03.544Z,97403.47
2023-03-26T22:35:49.713Z,97405.50
2023-03-26T22:38:36.245Z,97407.97
2023-03-26T22:41:23.026Z,97405.19
2023-03-26T22:44:19.058Z,97410.44
2023-03-26T22:47:05.984Z,97416.00
2023-03-26T22:49:51.585Z,97411.69
2023-03-26T22:52:38.966Z,97407.06
2023-03-26T22:55:28.425Z,97409.84
2023-03-26T22:58:14.811Z,97415.09
2023-03-26T23:01:10.610Z,97416.38
2023-03-26T23:03:56.354Z,97413.59
2023-03-26T23:06:42.263Z,97417.59
2023-03-26T23:09:27.646Z,97414.50
2023-03-26T23:12:12.867Z,97414.50
2023-03-26T23:14:58.337Z,97411.44
2023-03-26T23:17:43.784Z,97411.44
2023-03-26T23:20:29.991Z,97414.69
2023-03-26T23:23:15.877Z,97430.56
2023-03-26T23:26:03.494Z,97433.38
2023-03-26T23:28:51.098Z,97439.41
2023-03-26T23:31:37.046Z,97440.16
2023-03-26T23:34:23.230Z,97438.63
2023-03-26T23:37:11.151Z,97447.75
2023-03-26T23:39:56.649Z,97442.66
2023-03-26T23:42:42.464Z,97439.88
2023-03-26T23:45:27.693Z,97445.44
2023-03-26T23:48:17.430Z,97450.22
2023-03-26T23:51:04.003Z,97450.69
2023-03-26T23:53:50.140Z,97449.47
2023-03-26T23:56:36.075Z,97456.25
2023-03-26T23:59:21.236Z,97456.69
